sensor_id;sensor_type;location;lat;lon;timestamp;P1;durP1;ratioP1;P2;durP2;ratioP2
3939;SDS011;1984;48.312;9.244;2023-06-22T00:01:47;11.27;;;7.37;;
3939;SDS011;1984;48.312;9.244;2023-06-22T00:04:13;11.30;;;6.50;;
3939;SDS011;1984;48.312;9.244;2023-06-22T00:06:38;15.60;;;7.30;;
3939;SDS011;1984;48.312;9.244;2023-06-22T00:09:04;13.00;;;7.23;;
3939;SDS011;1984;48.312;9.244;2023-06-22T00:11:31;10.70;;;7.00;;
3939;SDS011;1984;48.312;9.244;2023-06-22T00:13:58;22.47;;;7.50;;
3939;SDS011;1984;48.312;9.244;2023-06-22T00:16:24;22.13;;;7.57;;
3939;SDS011;1984;48.312;9.244;2023-06-22T00:18:49;16.73;;;7.63;;
3939;SDS011;1984;48.312;9.244;2023-06-22T00:21:15;18.53;;;6.87;;
3939;SDS011;1984;48.312;9.244;2023-06-22T00:23:41;12.30;;;6.33;;
3939;SDS011;1984;48.312;9.244;2023-06-22T00:26:06;14.50;;;7.37;;
3939;SDS011;1984;48.312;9.244;2023-06-22T00:28:32;14.67;;;6.80;;
3939;SDS011;1984;48.312;9.244;2023-06-22T00:30:58;16.40;;;8.37;;
3939;SDS011;1984;48.312;9.244;2023-06-22T00:33:25;12.30;;;6.93;;
3939;SDS011;1984;48.312;9.244;2023-06-22T00:35:51;21.17;;;7.00;;
3939;SDS011;1984;48.312;9.244;2023-06-22T00:38:18;8.10;;;5.77;;
3939;SDS011;1984;48.312;9.244;2023-06-22T00:40:44;18.13;;;6.40;;
3939;SDS011;1984;48.312;9.244;2023-06-22T00:43:10;12.73;;;7.20;;
3939;SDS011;1984;48.312;9.244;2023-06-22T00:45:35;20.07;;;7.50;;
3939;SDS011;1984;48.312;9.244;2023-06-22T00:48:01;19.97;;;6.50;;
3939;SDS011;1984;48.312;9.244;2023-06-22T00:50:29;9.30;;;6.70;;
3939;SDS011;1984;48.312;9.244;2023-06-22T00:52:58;9.50;;;6.17;;
3939;SDS011;1984;48.312;9.244;2023-06-22T00:55:25;7.10;;;6.10;;
3939;SDS011;1984;48.312;9.244;2023-06-22T00:57:52;13.70;;;6.50;;
3939;SDS011;1984;48.312;9.244;2023-06-22T01:00:22;14.13;;;6.23;;
3939;SDS011;1984;48.312;9.244;2023-06-22T01:02:49;13.67;;;5.90;;
3939;SDS011;1984;48.312;9.244;2023-06-22T01:05:17;7.83;;;6.27;;
3939;SDS011;1984;48.312;9.244;2023-06-22T01:07:58;9.43;;;5.30;;
3939;SDS011;1984;48.312;9.244;2023-06-22T01:11:06;20.17;;;6.10;;
3939;SDS011;1984;48.312;9.244;2023-06-22T01:16:29;15.00;;;6.13;;
3939;SDS011;1984;48.312;9.244;2023-06-22T01:18:57;12.57;;;5.93;;
3939;SDS011;1984;48.312;9.244;2023-06-22T01:21:27;9.70;;;6.10;;
3939;SDS011;1984;48.312;9.244;2023-06-22T01:26:59;8.80;;;5.80;;
3939;SDS011;1984;48.312;9.244;2023-06-22T01:29:47;11.60;;;7.33;;
3939;SDS011;1984;48.312;9.244;2023-06-22T01:32:16;12.67;;;5.80;;
3939;SDS011;1984;48.312;9.244;2023-06-22T01:34:42;13.93;;;6.97;;
3939;SDS011;1984;48.312;9.244;2023-06-22T01:37:08;14.93;;;7.23;;
3939;SDS011;1984;48.312;9.244;2023-06-22T01:39:34;10.70;;;6.33;;
3939;SDS011;1984;48.312;9.244;2023-06-22T01:42:01;13.83;;;7.40;;
3939;SDS011;1984;48.312;9.244;2023-06-22T01:44:27;18.93;;;6.47;;
3939;SDS011;1984;48.312;9.244;2023-06-22T01:46:53;10.03;;;6.23;;
3939;SDS011;1984;48.312;9.244;2023-06-22T01:49:20;13.13;;;6.47;;
3939;SDS011;1984;48.312;9.244;2023-06-22T01:51:45;7.23;;;5.63;;
3939;SDS011;1984;48.312;9.244;2023-06-22T01:54:11;15.00;;;6.03;;
3939;SDS011;1984;48.312;9.244;2023-06-22T01:56:36;14.20;;;6.90;;
3939;SDS011;1984;48.312;9.244;2023-06-22T01:59:09;18.67;;;6.10;;
3939;SDS011;1984;48.312;9.244;2023-06-22T02:01:43;12.80;;;7.17;;
3939;SDS011;1984;48.312;9.244;2023-06-22T02:04:13;14.93;;;7.43;;
3939;SDS011;1984;48.312;9.244;2023-06-22T02:06:45;11.23;;;6.50;;
3939;SDS011;1984;48.312;9.244;2023-06-22T02:09:14;13.63;;;6.50;;
3939;SDS011;1984;48.312;9.244;2023-06-22T02:11:42;16.70;;;6.60;;
3939;SDS011;1984;48.312;9.244;2023-06-22T02:14:10;12.70;;;7.00;;
3939;SDS011;1984;48.312;9.244;2023-06-22T02:16:37;10.70;;;6.80;;
3939;SDS011;1984;48.312;9.244;2023-06-22T02:19:03;9.57;;;5.87;;
3939;SDS011;1984;48.312;9.244;2023-06-22T02:21:31;11.00;;;6.90;;
3939;SDS011;1984;48.312;9.244;2023-06-22T02:23:57;17.77;;;6.30;;
3939;SDS011;1984;48.312;9.244;2023-06-22T02:26:23;13.07;;;6.90;;
3939;SDS011;1984;48.312;9.244;2023-06-22T02:28:50;13.23;;;6.57;;
3939;SDS011;1984;48.312;9.244;2023-06-22T02:31:15;12.60;;;6.60;;
3939;SDS011;1984;48.312;9.244;2023-06-22T02:33:41;8.13;;;5.60;;
3939;SDS011;1984;48.312;9.244;2023-06-22T02:36:06;16.93;;;6.57;;
3939;SDS011;1984;48.312;9.244;2023-06-22T02:38:34;9.63;;;5.90;;
3939;SDS011;1984;48.312;9.244;2023-06-22T02:41:02;10.70;;;5.57;;
3939;SDS011;1984;48.312;9.244;2023-06-22T02:43:28;15.43;;;6.67;;
3939;SDS011;1984;48.312;9.244;2023-06-22T02:45:53;10.00;;;5.67;;
3939;SDS011;1984;48.312;9.244;2023-06-22T02:48:20;15.20;;;6.73;;
3939;SDS011;1984;48.312;9.244;2023-06-22T02:50:45;13.30;;;5.97;;
3939;SDS011;1984;48.312;9.244;2023-06-22T02:53:11;9.97;;;5.70;;
3939;SDS011;1984;48.312;9.244;2023-06-22T02:55:36;10.77;;;6.13;;
3939;SDS011;1984;48.312;9.244;2023-06-22T02:58:04;13.57;;;5.57;;
3939;SDS011;1984;48.312;9.244;2023-06-22T03:00:30;9.00;;;5.77;;
3939;SDS011;1984;48.312;9.244;2023-06-22T03:02:56;16.30;;;6.10;;
3939;SDS011;1984;48.312;9.244;2023-06-22T03:05:22;15.33;;;6.10;;
3939;SDS011;1984;48.312;9.244;2023-06-22T03:07:48;8.97;;;5.47;;
3939;SDS011;1984;48.312;9.244;2023-06-22T03:10:14;10.00;;;5.80;;
3939;SDS011;1984;48.312;9.244;2023-06-22T03:12:41;9.10;;;5.07;;
3939;SDS011;1984;48.312;9.244;2023-06-22T03:15:11;9.53;;;5.47;;
3939;SDS011;1984;48.312;9.244;2023-06-22T03:17:37;8.60;;;5.50;;
3939;SDS011;1984;48.312;9.244;2023-06-22T03:20:05;12.30;;;6.00;;
3939;SDS011;1984;48.312;9.244;2023-06-22T03:22:35;16.00;;;6.93;;
3939;SDS011;1984;48.312;9.244;2023-06-22T03:25:01;11.20;;;5.80;;
3939;SDS011;1984;48.312;9.244;2023-06-22T03:27:27;11.20;;;5.90;;
3939;SDS011;1984;48.312;9.244;2023-06-22T03:29:53;6.30;;;5.33;;
3939;SDS011;1984;48.312;9.244;2023-06-22T03:32:18;10.00;;;6.27;;
3939;SDS011;1984;48.312;9.244;2023-06-22T03:34:44;11.00;;;6.50;;
3939;SDS011;1984;48.312;9.244;2023-06-22T03:37:13;11.30;;;5.70;;
3939;SDS011;1984;48.312;9.244;2023-06-22T03:39:40;10.90;;;6.00;;
3939;SDS011;1984;48.312;9.244;2023-06-22T03:42:06;9.10;;;5.50;;
3939;SDS011;1984;48.312;9.244;2023-06-22T03:44:32;8.97;;;5.30;;
3939;SDS011;1984;48.312;9.244;2023-06-22T03:46:59;10.83;;;4.93;;
3939;SDS011;1984;48.312;9.244;2023-06-22T03:49:24;12.00;;;5.27;;
3939;SDS011;1984;48.312;9.244;2023-06-22T03:51:49;15.33;;;5.60;;
3939;SDS011;1984;48.312;9.244;2023-06-22T03:54:15;8.60;;;5.40;;
3939;SDS011;1984;48.312;9.244;2023-06-22T03:56:41;10.10;;;6.10;;
3939;SDS011;1984;48.312;9.244;2023-06-22T03:59:06;12.00;;;5.77;;
3939;SDS011;1984;48.312;9.244;2023-06-22T04:01:32;9.77;;;6.07;;
3939;SDS011;1984;48.312;9.244;2023-06-22T04:03:57;10.23;;;5.97;;
3939;SDS011;1984;48.312;9.244;2023-06-22T04:06:23;13.50;;;6.07;;
3939;SDS011;1984;48.312;9.244;2023-06-22T04:08:48;15.40;;;6.03;;
3939;SDS011;1984;48.312;9.244;2023-06-22T04:11:16;11.50;;;5.20;;
3939;SDS011;1984;48.312;9.244;2023-06-22T04:13:43;9.10;;;5.07;;
3939;SDS011;1984;48.312;9.244;2023-06-22T04:16:08;11.97;;;5.70;;
3939;SDS011;1984;48.312;9.244;2023-06-22T04:18:34;6.53;;;4.60;;
3939;SDS011;1984;48.312;9.244;2023-06-22T04:20:59;8.37;;;4.83;;
3939;SDS011;1984;48.312;9.244;2023-06-22T04:23:26;9.80;;;5.87;;
3939;SDS011;1984;48.312;9.244;2023-06-22T04:25:52;11.80;;;4.80;;
3939;SDS011;1984;48.312;9.244;2023-06-22T04:28:18;6.93;;;5.03;;
3939;SDS011;1984;48.312;9.244;2023-06-22T04:30:43;9.93;;;5.40;;
3939;SDS011;1984;48.312;9.244;2023-06-22T04:33:13;8.43;;;5.33;;
3939;SDS011;1984;48.312;9.244;2023-06-22T04:35:39;11.70;;;5.70;;
3939;SDS011;1984;48.312;9.244;2023-06-22T04:38:07;13.13;;;4.60;;
3939;SDS011;1984;48.312;9.244;2023-06-22T04:40:33;11.60;;;6.03;;
3939;SDS011;1984;48.312;9.244;2023-06-22T04:42:59;9.43;;;5.70;;
3939;SDS011;1984;48.312;9.244;2023-06-22T04:45:27;11.97;;;5.27;;
3939;SDS011;1984;48.312;9.244;2023-06-22T04:47:56;7.50;;;5.73;;
3939;SDS011;1984;48.312;9.244;2023-06-22T04:50:22;13.53;;;5.13;;
3939;SDS011;1984;48.312;9.244;2023-06-22T04:52:48;12.87;;;5.10;;
3939;SDS011;1984;48.312;9.244;2023-06-22T04:55:14;13.20;;;5.70;;
3939;SDS011;1984;48.312;9.244;2023-06-22T04:57:48;5.70;;;4.70;;
3939;SDS011;1984;48.312;9.244;2023-06-22T05:00:14;9.80;;;4.83;;
3939;SDS011;1984;48.312;9.244;2023-06-22T05:02:44;13.70;;;6.63;;
3939;SDS011;1984;48.312;9.244;2023-06-22T05:05:11;10.40;;;5.47;;
3939;SDS011;1984;48.312;9.244;2023-06-22T05:07:43;11.47;;;5.70;;
3939;SDS011;1984;48.312;9.244;2023-06-22T05:10:12;9.83;;;6.53;;
3939;SDS011;1984;48.312;9.244;2023-06-22T05:12:38;11.80;;;6.10;;
3939;SDS011;1984;48.312;9.244;2023-06-22T05:15:05;8.67;;;5.20;;
3939;SDS011;1984;48.312;9.244;2023-06-22T05:17:31;11.63;;;6.03;;
3939;SDS011;1984;48.312;9.244;2023-06-22T05:19:57;11.30;;;7.03;;
3939;SDS011;1984;48.312;9.244;2023-06-22T05:22:23;12.13;;;5.80;;
3939;SDS011;1984;48.312;9.244;2023-06-22T05:24:48;14.37;;;7.10;;
3939;SDS011;1984;48.312;9.244;2023-06-22T05:27:14;12.03;;;5.97;;
3939;SDS011;1984;48.312;9.244;2023-06-22T05:29:40;13.80;;;6.80;;
3939;SDS011;1984;48.312;9.244;2023-06-22T05:32:06;10.80;;;6.40;;
3939;SDS011;1984;48.312;9.244;2023-06-22T05:34:32;10.87;;;6.20;;
3939;SDS011;1984;48.312;9.244;2023-06-22T05:36:57;14.33;;;6.10;;
3939;SDS011;1984;48.312;9.244;2023-06-22T05:39:26;8.83;;;5.80;;
3939;SDS011;1984;48.312;9.244;2023-06-22T05:41:51;16.10;;;6.00;;
3939;SDS011;1984;48.312;9.244;2023-06-22T05:44:17;10.80;;;5.57;;
3939;SDS011;1984;48.312;9.244;2023-06-22T05:46:44;9.07;;;7.17;;
3939;SDS011;1984;48.312;9.244;2023-06-22T05:49:11;11.00;;;5.30;;
3939;SDS011;1984;48.312;9.244;2023-06-22T05:51:37;9.47;;;6.07;;
3939;SDS011;1984;48.312;9.244;2023-06-22T05:54:03;15.33;;;5.70;;
3939;SDS011;1984;48.312;9.244;2023-06-22T05:56:29;13.53;;;5.93;;
3939;SDS011;1984;48.312;9.244;2023-06-22T05:58:54;10.77;;;5.77;;
3939;SDS011;1984;48.312;9.244;2023-06-22T06:01:20;13.37;;;6.60;;
3939;SDS011;1984;48.312;9.244;2023-06-22T06:03:45;9.90;;;4.70;;
3939;SDS011;1984;48.312;9.244;2023-06-22T06:06:11;17.40;;;6.17;;
3939;SDS011;1984;48.312;9.244;2023-06-22T06:08:38;11.27;;;5.70;;
3939;SDS011;1984;48.312;9.244;2023-06-22T06:11:04;9.60;;;4.97;;
3939;SDS011;1984;48.312;9.244;2023-06-22T06:13:29;11.83;;;5.50;;
3939;SDS011;1984;48.312;9.244;2023-06-22T06:15:55;9.67;;;5.53;;
3939;SDS011;1984;48.312;9.244;2023-06-22T06:18:21;13.60;;;5.20;;
3939;SDS011;1984;48.312;9.244;2023-06-22T06:20:48;22.20;;;6.20;;
3939;SDS011;1984;48.312;9.244;2023-06-22T06:23:13;19.13;;;6.50;;
3939;SDS011;1984;48.312;9.244;2023-06-22T06:25:39;9.97;;;5.77;;
3939;SDS011;1984;48.312;9.244;2023-06-22T06:28:04;14.73;;;5.70;;
3939;SDS011;1984;48.312;9.244;2023-06-22T06:30:30;9.00;;;5.83;;
3939;SDS011;1984;48.312;9.244;2023-06-22T06:32:56;12.03;;;5.83;;
3939;SDS011;1984;48.312;9.244;2023-06-22T06:35:22;16.93;;;6.17;;
3939;SDS011;1984;48.312;9.244;2023-06-22T06:37:48;11.47;;;5.87;;
3939;SDS011;1984;48.312;9.244;2023-06-22T06:40:15;11.30;;;5.10;;
3939;SDS011;1984;48.312;9.244;2023-06-22T06:42:43;7.13;;;5.17;;
3939;SDS011;1984;48.312;9.244;2023-06-22T06:45:11;11.83;;;5.10;;
3939;SDS011;1984;48.312;9.244;2023-06-22T06:47:38;8.23;;;5.37;;
3939;SDS011;1984;48.312;9.244;2023-06-22T06:50:04;13.00;;;4.57;;
3939;SDS011;1984;48.312;9.244;2023-06-22T06:52:31;12.17;;;5.67;;
3939;SDS011;1984;48.312;9.244;2023-06-22T06:54:58;10.63;;;5.57;;
3939;SDS011;1984;48.312;9.244;2023-06-22T06:57:24;16.17;;;5.37;;
3939;SDS011;1984;48.312;9.244;2023-06-22T06:59:53;7.23;;;5.43;;
3939;SDS011;1984;48.312;9.244;2023-06-22T07:02:22;7.63;;;4.93;;
3939;SDS011;1984;48.312;9.244;2023-06-22T07:04:48;13.60;;;4.97;;
3939;SDS011;1984;48.312;9.244;2023-06-22T07:07:14;8.37;;;4.60;;
3939;SDS011;1984;48.312;9.244;2023-06-22T07:09:40;9.53;;;5.00;;
3939;SDS011;1984;48.312;9.244;2023-06-22T07:12:06;10.67;;;4.67;;
3939;SDS011;1984;48.312;9.244;2023-06-22T07:14:32;15.30;;;5.57;;
3939;SDS011;1984;48.312;9.244;2023-06-22T07:16:58;10.07;;;5.00;;
3939;SDS011;1984;48.312;9.244;2023-06-22T07:19:26;9.47;;;4.83;;
3939;SDS011;1984;48.312;9.244;2023-06-22T07:21:53;11.57;;;4.63;;
3939;SDS011;1984;48.312;9.244;2023-06-22T07:24:19;8.73;;;4.93;;
3939;SDS011;1984;48.312;9.244;2023-06-22T07:26:48;8.40;;;4.97;;
3939;SDS011;1984;48.312;9.244;2023-06-22T07:29:15;7.50;;;4.47;;
3939;SDS011;1984;48.312;9.244;2023-06-22T07:31:47;9.80;;;5.33;;
3939;SDS011;1984;48.312;9.244;2023-06-22T07:34:15;9.10;;;4.60;;
3939;SDS011;1984;48.312;9.244;2023-06-22T07:36:40;11.77;;;5.67;;
3939;SDS011;1984;48.312;9.244;2023-06-22T07:39:06;12.43;;;4.80;;
3939;SDS011;1984;48.312;9.244;2023-06-22T07:41:31;11.57;;;5.40;;
3939;SDS011;1984;48.312;9.244;2023-06-22T07:43:57;8.77;;;4.93;;
3939;SDS011;1984;48.312;9.244;2023-06-22T07:46:23;10.37;;;4.67;;
3939;SDS011;1984;48.312;9.244;2023-06-22T07:48:48;10.27;;;5.13;;
3939;SDS011;1984;48.312;9.244;2023-06-22T07:51:14;17.63;;;4.87;;
3939;SDS011;1984;48.312;9.244;2023-06-22T07:53:43;8.90;;;4.33;;
3939;SDS011;1984;48.312;9.244;2023-06-22T07:56:12;8.80;;;4.43;;
3939;SDS011;1984;48.312;9.244;2023-06-22T07:58:38;7.63;;;4.50;;
3939;SDS011;1984;48.312;9.244;2023-06-22T08:01:04;16.10;;;5.60;;
3939;SDS011;1984;48.312;9.244;2023-06-22T08:03:31;13.47;;;4.97;;
3939;SDS011;1984;48.312;9.244;2023-06-22T08:05:56;13.03;;;5.50;;
3939;SDS011;1984;48.312;9.244;2023-06-22T08:08:22;10.17;;;5.37;;
3939;SDS011;1984;48.312;9.244;2023-06-22T08:10:48;11.83;;;4.87;;
3939;SDS011;1984;48.312;9.244;2023-06-22T08:13:14;23.87;;;5.70;;
3939;SDS011;1984;48.312;9.244;2023-06-22T08:15:39;10.13;;;5.80;;
3939;SDS011;1984;48.312;9.244;2023-06-22T08:18:05;21.77;;;6.20;;
3939;SDS011;1984;48.312;9.244;2023-06-22T08:20:30;17.57;;;5.47;;
3939;SDS011;1984;48.312;9.244;2023-06-22T08:22:56;11.17;;;5.00;;
3939;SDS011;1984;48.312;9.244;2023-06-22T08:25:25;14.47;;;5.00;;
3939;SDS011;1984;48.312;9.244;2023-06-22T08:27:50;11.37;;;4.63;;
3939;SDS011;1984;48.312;9.244;2023-06-22T08:30:16;9.73;;;5.10;;
3939;SDS011;1984;48.312;9.244;2023-06-22T08:32:43;9.48;;;4.18;;
3939;SDS011;1984;48.312;9.244;2023-06-22T08:35:09;7.40;;;3.70;;
3939;SDS011;1984;48.312;9.244;2023-06-22T08:37:35;21.55;;;4.32;;
3939;SDS011;1984;48.312;9.244;2023-06-22T08:40:02;9.95;;;4.22;;
3939;SDS011;1984;48.312;9.244;2023-06-22T08:42:36;12.98;;;4.65;;
3939;SDS011;1984;48.312;9.244;2023-06-22T08:45:01;10.47;;;4.73;;
3939;SDS011;1984;48.312;9.244;2023-06-22T08:47:27;8.77;;;3.78;;
3939;SDS011;1984;48.312;9.244;2023-06-22T08:49:53;16.83;;;4.83;;
3939;SDS011;1984;48.312;9.244;2023-06-22T08:52:19;13.00;;;5.40;;
3939;SDS011;1984;48.312;9.244;2023-06-22T08:54:48;14.60;;;4.53;;
3939;SDS011;1984;48.312;9.244;2023-06-22T08:57:14;11.90;;;5.32;;
3939;SDS011;1984;48.312;9.244;2023-06-22T08:59:39;19.23;;;5.30;;
3939;SDS011;1984;48.312;9.244;2023-06-22T09:02:05;10.68;;;4.07;;
3939;SDS011;1984;48.312;9.244;2023-06-22T09:04:31;8.13;;;4.10;;
3939;SDS011;1984;48.312;9.244;2023-06-22T09:06:59;9.23;;;4.05;;
3939;SDS011;1984;48.312;9.244;2023-06-22T09:09:25;11.75;;;4.00;;
3939;SDS011;1984;48.312;9.244;2023-06-22T09:11:51;11.40;;;4.28;;
3939;SDS011;1984;48.312;9.244;2023-06-22T09:14:16;7.70;;;3.58;;
3939;SDS011;1984;48.312;9.244;2023-06-22T09:16:42;11.68;;;4.75;;
3939;SDS011;1984;48.312;9.244;2023-06-22T09:19:07;11.10;;;4.43;;
3939;SDS011;1984;48.312;9.244;2023-06-22T09:21:33;24.80;;;4.75;;
3939;SDS011;1984;48.312;9.244;2023-06-22T09:23:59;9.77;;;4.28;;
3939;SDS011;1984;48.312;9.244;2023-06-22T09:26:24;8.15;;;4.28;;
3939;SDS011;1984;48.312;9.244;2023-06-22T09:28:50;10.18;;;4.20;;
3939;SDS011;1984;48.312;9.244;2023-06-22T09:31:15;14.98;;;4.30;;
3939;SDS011;1984;48.312;9.244;2023-06-22T09:33:41;12.50;;;4.47;;
3939;SDS011;1984;48.312;9.244;2023-06-22T09:36:07;9.25;;;4.35;;
3939;SDS011;1984;48.312;9.244;2023-06-22T09:38:36;13.13;;;4.47;;
3939;SDS011;1984;48.312;9.244;2023-06-22T09:41:02;9.45;;;4.05;;
3939;SDS011;1984;48.312;9.244;2023-06-22T09:43:28;9.98;;;3.97;;
3939;SDS011;1984;48.312;9.244;2023-06-22T09:45:54;5.72;;;3.63;;
3939;SDS011;1984;48.312;9.244;2023-06-22T09:48:20;8.93;;;3.83;;
3939;SDS011;1984;48.312;9.244;2023-06-22T09:50:45;9.55;;;4.35;;
3939;SDS011;1984;48.312;9.244;2023-06-22T09:53:11;10.23;;;4.43;;
3939;SDS011;1984;48.312;9.244;2023-06-22T09:55:37;6.45;;;3.60;;
3939;SDS011;1984;48.312;9.244;2023-06-22T09:58:02;6.07;;;3.65;;
3939;SDS011;1984;48.312;9.244;2023-06-22T10:00:28;11.43;;;4.10;;
3939;SDS011;1984;48.312;9.244;2023-06-22T10:02:53;8.88;;;4.05;;
3939;SDS011;1984;48.312;9.244;2023-06-22T10:05:20;13.68;;;4.72;;
3939;SDS011;1984;48.312;9.244;2023-06-22T10:07:46;8.07;;;4.13;;
3939;SDS011;1984;48.312;9.244;2023-06-22T10:10:12;12.85;;;4.32;;
3939;SDS011;1984;48.312;9.244;2023-06-22T10:12:48;15.00;;;4.60;;
3939;SDS011;1984;48.312;9.244;2023-06-22T10:15:20;13.45;;;4.35;;
3939;SDS011;1984;48.312;9.244;2023-06-22T10:17:46;13.63;;;4.78;;
3939;SDS011;1984;48.312;9.244;2023-06-22T10:20:12;11.52;;;4.97;;
3939;SDS011;1984;48.312;9.244;2023-06-22T10:22:44;10.50;;;4.32;;
3939;SDS011;1984;48.312;9.244;2023-06-22T10:25:11;12.55;;;4.18;;
3939;SDS011;1984;48.312;9.244;2023-06-22T10:27:38;9.43;;;4.30;;
3939;SDS011;1984;48.312;9.244;2023-06-22T10:30:07;10.88;;;4.35;;
3939;SDS011;1984;48.312;9.244;2023-06-22T10:32:34;12.88;;;5.60;;
3939;SDS011;1984;48.312;9.244;2023-06-22T10:35:01;12.18;;;4.60;;
3939;SDS011;1984;48.312;9.244;2023-06-22T10:37:27;16.55;;;4.43;;
3939;SDS011;1984;48.312;9.244;2023-06-22T10:39:52;13.38;;;4.25;;
3939;SDS011;1984;48.312;9.244;2023-06-22T10:42:18;15.63;;;4.00;;
3939;SDS011;1984;48.312;9.244;2023-06-22T10:44:43;8.65;;;4.47;;
3939;SDS011;1984;48.312;9.244;2023-06-22T10:47:09;6.18;;;3.50;;
3939;SDS011;1984;48.312;9.244;2023-06-22T10:49:37;12.68;;;4.70;;
3939;SDS011;1984;48.312;9.244;2023-06-22T10:52:03;11.43;;;4.07;;
3939;SDS011;1984;48.312;9.244;2023-06-22T10:54:30;12.52;;;4.05;;
3939;SDS011;1984;48.312;9.244;2023-06-22T10:56:57;14.07;;;4.50;;
3939;SDS011;1984;48.312;9.244;2023-06-22T10:59:23;14.75;;;3.90;;
3939;SDS011;1984;48.312;9.244;2023-06-22T11:01:49;14.95;;;6.43;;
3939;SDS011;1984;48.312;9.244;2023-06-22T11:04:14;14.13;;;4.72;;
3939;SDS011;1984;48.312;9.244;2023-06-22T11:06:40;15.00;;;4.32;;
3939;SDS011;1984;48.312;9.244;2023-06-22T11:09:05;11.50;;;4.28;;
3939;SDS011;1984;48.312;9.244;2023-06-22T11:11:31;10.40;;;3.72;;
3939;SDS011;1984;48.312;9.244;2023-06-22T11:13:56;13.40;;;3.92;;
3939;SDS011;1984;48.312;9.244;2023-06-22T11:16:22;11.75;;;4.70;;
3939;SDS011;1984;48.312;9.244;2023-06-22T11:18:47;16.73;;;4.20;;
3939;SDS011;1984;48.312;9.244;2023-06-22T11:21:13;10.40;;;3.63;;
3939;SDS011;1984;48.312;9.244;2023-06-22T11:23:38;13.55;;;4.65;;
3939;SDS011;1984;48.312;9.244;2023-06-22T11:26:04;9.77;;;4.22;;
3939;SDS011;1984;48.312;9.244;2023-06-22T11:28:29;9.90;;;4.05;;
3939;SDS011;1984;48.312;9.244;2023-06-22T11:30:55;12.60;;;5.20;;
3939;SDS011;1984;48.312;9.244;2023-06-22T11:33:20;16.40;;;3.67;;
3939;SDS011;1984;48.312;9.244;2023-06-22T11:35:46;13.32;;;4.47;;
3939;SDS011;1984;48.312;9.244;2023-06-22T11:38:11;13.65;;;4.28;;
3939;SDS011;1984;48.312;9.244;2023-06-22T11:40:37;11.30;;;4.40;;
3939;SDS011;1984;48.312;9.244;2023-06-22T11:43:02;12.18;;;4.00;;
3939;SDS011;1984;48.312;9.244;2023-06-22T11:45:28;13.70;;;5.07;;
3939;SDS011;1984;48.312;9.244;2023-06-22T11:47:53;13.60;;;4.45;;
3939;SDS011;1984;48.312;9.244;2023-06-22T11:50:19;15.70;;;4.20;;
3939;SDS011;1984;48.312;9.244;2023-06-22T11:52:44;16.98;;;4.88;;
3939;SDS011;1984;48.312;9.244;2023-06-22T11:55:10;14.02;;;4.60;;
3939;SDS011;1984;48.312;9.244;2023-06-22T11:57:36;17.75;;;5.07;;
3939;SDS011;1984;48.312;9.244;2023-06-22T12:00:02;13.55;;;4.47;;
3939;SDS011;1984;48.312;9.244;2023-06-22T12:02:40;11.27;;;4.50;;
3939;SDS011;1984;48.312;9.244;2023-06-22T12:05:06;14.50;;;4.35;;
3939;SDS011;1984;48.312;9.244;2023-06-22T12:07:33;14.75;;;4.03;;
3939;SDS011;1984;48.312;9.244;2023-06-22T12:09:58;16.98;;;4.00;;
3939;SDS011;1984;48.312;9.244;2023-06-22T12:12:24;18.83;;;5.18;;
3939;SDS011;1984;48.312;9.244;2023-06-22T12:14:49;13.82;;;4.97;;
3939;SDS011;1984;48.312;9.244;2023-06-22T12:17:15;6.70;;;3.97;;
3939;SDS011;1984;48.312;9.244;2023-06-22T12:19:40;12.25;;;4.15;;
3939;SDS011;1984;48.312;9.244;2023-06-22T12:22:06;29.55;;;5.65;;
3939;SDS011;1984;48.312;9.244;2023-06-22T12:24:31;17.40;;;5.80;;
3939;SDS011;1984;48.312;9.244;2023-06-22T12:26:57;8.25;;;4.35;;
3939;SDS011;1984;48.312;9.244;2023-06-22T12:29:22;12.13;;;4.40;;
3939;SDS011;1984;48.312;9.244;2023-06-22T12:31:48;18.38;;;4.68;;
3939;SDS011;1984;48.312;9.244;2023-06-22T12:34:13;8.80;;;4.40;;
3939;SDS011;1984;48.312;9.244;2023-06-22T12:36:39;9.40;;;4.20;;
3939;SDS011;1984;48.312;9.244;2023-06-22T12:39:06;11.90;;;5.57;;
3939;SDS011;1984;48.312;9.244;2023-06-22T12:41:31;10.23;;;4.70;;
3939;SDS011;1984;48.312;9.244;2023-06-22T12:43:57;16.83;;;4.97;;
3939;SDS011;1984;48.312;9.244;2023-06-22T12:46:22;15.63;;;4.33;;
3939;SDS011;1984;48.312;9.244;2023-06-22T12:48:48;13.23;;;4.50;;
3939;SDS011;1984;48.312;9.244;2023-06-22T12:51:19;12.30;;;5.60;;
3939;SDS011;1984;48.312;9.244;2023-06-22T12:53:46;21.07;;;5.77;;
3939;SDS011;1984;48.312;9.244;2023-06-22T12:56:11;19.10;;;4.70;;
3939;SDS011;1984;48.312;9.244;2023-06-22T12:58:37;15.00;;;5.30;;
3939;SDS011;1984;48.312;9.244;2023-06-22T13:01:02;14.10;;;4.83;;
3939;SDS011;1984;48.312;9.244;2023-06-22T13:03:28;10.30;;;5.22;;
3939;SDS011;1984;48.312;9.244;2023-06-22T13:05:54;14.82;;;5.47;;
3939;SDS011;1984;48.312;9.244;2023-06-22T13:08:19;8.53;;;4.93;;
3939;SDS011;1984;48.312;9.244;2023-06-22T13:10:45;10.10;;;5.30;;
3939;SDS011;1984;48.312;9.244;2023-06-22T13:13:10;9.93;;;5.37;;
3939;SDS011;1984;48.312;9.244;2023-06-22T13:15:36;20.93;;;5.13;;
3939;SDS011;1984;48.312;9.244;2023-06-22T13:18:01;7.83;;;4.83;;
3939;SDS011;1984;48.312;9.244;2023-06-22T13:20:28;13.03;;;4.90;;
3939;SDS011;1984;48.312;9.244;2023-06-22T13:22:54;9.57;;;5.30;;
3939;SDS011;1984;48.312;9.244;2023-06-22T13:25:21;13.73;;;4.77;;
3939;SDS011;1984;48.312;9.244;2023-06-22T13:27:48;17.73;;;5.03;;
3939;SDS011;1984;48.312;9.244;2023-06-22T13:30:14;10.60;;;4.60;;
3939;SDS011;1984;48.312;9.244;2023-06-22T13:32:40;12.37;;;5.03;;
3939;SDS011;1984;48.312;9.244;2023-06-22T13:35:09;21.27;;;5.33;;
3939;SDS011;1984;48.312;9.244;2023-06-22T13:37:35;14.03;;;5.47;;
3939;SDS011;1984;48.312;9.244;2023-06-22T13:40:01;7.28;;;4.40;;
3939;SDS011;1984;48.312;9.244;2023-06-22T13:42:28;16.37;;;5.00;;
3939;SDS011;1984;48.312;9.244;2023-06-22T13:44:54;12.93;;;3.93;;
3939;SDS011;1984;48.312;9.244;2023-06-22T13:47:19;12.73;;;3.73;;
3939;SDS011;1984;48.312;9.244;2023-06-22T13:49:45;19.17;;;4.00;;
3939;SDS011;1984;48.312;9.244;2023-06-22T13:52:10;17.40;;;3.70;;
3939;SDS011;1984;48.312;9.244;2023-06-22T13:54:37;16.40;;;4.27;;
3939;SDS011;1984;48.312;9.244;2023-06-22T13:57:03;15.10;;;4.20;;
3939;SDS011;1984;48.312;9.244;2023-06-22T13:59:29;18.90;;;4.20;;
3939;SDS011;1984;48.312;9.244;2023-06-22T14:01:55;17.70;;;4.63;;
3939;SDS011;1984;48.312;9.244;2023-06-22T14:04:21;13.83;;;4.50;;
3939;SDS011;1984;48.312;9.244;2023-06-22T14:06:50;9.13;;;4.37;;
3939;SDS011;1984;48.312;9.244;2023-06-22T14:09:15;13.03;;;5.03;;
3939;SDS011;1984;48.312;9.244;2023-06-22T14:11:41;12.77;;;5.27;;
3939;SDS011;1984;48.312;9.244;2023-06-22T14:14:06;15.47;;;4.30;;
3939;SDS011;1984;48.312;9.244;2023-06-22T14:16:32;12.50;;;4.27;;
3939;SDS011;1984;48.312;9.244;2023-06-22T14:18:58;15.50;;;4.23;;
3939;SDS011;1984;48.312;9.244;2023-06-22T14:21:23;12.93;;;4.70;;
3939;SDS011;1984;48.312;9.244;2023-06-22T14:23:50;7.27;;;4.67;;
3939;SDS011;1984;48.312;9.244;2023-06-22T14:26:16;14.07;;;4.27;;
3939;SDS011;1984;48.312;9.244;2023-06-22T14:28:45;7.17;;;4.23;;
3939;SDS011;1984;48.312;9.244;2023-06-22T14:31:18;16.90;;;5.13;;
3939;SDS011;1984;48.312;9.244;2023-06-22T14:33:48;14.60;;;4.30;;
3939;SDS011;1984;48.312;9.244;2023-06-22T14:36:15;12.97;;;3.20;;
3939;SDS011;1984;48.312;9.244;2023-06-22T14:38:42;8.70;;;2.90;;
3939;SDS011;1984;48.312;9.244;2023-06-22T14:41:07;11.57;;;3.43;;
3939;SDS011;1984;48.312;9.244;2023-06-22T14:43:33;8.30;;;2.67;;
3939;SDS011;1984;48.312;9.244;2023-06-22T14:45:58;8.43;;;2.90;;
3939;SDS011;1984;48.312;9.244;2023-06-22T14:48:24;14.10;;;3.40;;
3939;SDS011;1984;48.312;9.244;2023-06-22T14:50:49;12.57;;;3.00;;
3939;SDS011;1984;48.312;9.244;2023-06-22T14:53:15;7.10;;;3.20;;
3939;SDS011;1984;48.312;9.244;2023-06-22T14:55:40;10.63;;;2.90;;
3939;SDS011;1984;48.312;9.244;2023-06-22T14:58:06;8.97;;;2.90;;
3939;SDS011;1984;48.312;9.244;2023-06-22T15:00:32;10.00;;;2.70;;
3939;SDS011;1984;48.312;9.244;2023-06-22T15:02:57;13.80;;;2.70;;
3939;SDS011;1984;48.312;9.244;2023-06-22T15:05:24;8.43;;;3.10;;
3939;SDS011;1984;48.312;9.244;2023-06-22T15:07:50;9.63;;;3.40;;